Alpha Afovos — SZSJ — position and weather

sailwx.info

Track history (hours):
 
Tides and Currents Weather Stations Pressure Air Temp Water Temp Dewpoint Dewpoint Depression Visibility Wind Speed Wind Dir Waves Ship Positions

Alpha Afovos

Last reported at 2016-Dec-05 13:24 UTC. Time now 2016-Dec-05 20:34 UTC.
Position S 33°13' E 152°33'.

Length 224 m; draft 14.1 m.

Type: Cargo ship. MMSI: 239802000.

Date/timePositionNaut miles runAvg speedWind from/ knotsBaromVisibWave heightAir tempDewpointWater temp
2016-Dec-05 13:24S 33°13' E 152°33'911.1
2016-Dec-05 12:33S 33°10' E 152°22'1211.9
2016-Dec-05 11:33S 33°05' E 152°09'1212.2
2016-Dec-05 10:33S 32°59' E 151°56'9 8.5
2016-Dec-05 09:32S 32°55' E 151°47'1 1.2
2016-Dec-05 08:30S 32°54' E 151°46'0 0.0
2016-Dec-05 07:30S 32°54' E 151°46'0 0.0
2016-Dec-05 06:33S 32°54' E 151°46'0 0.0
2016-Dec-05 05:33S 32°54' E 151°46'0 0.0
2016-Dec-05 04:30S 32°54' E 151°46'0 0.0
2016-Dec-05 03:30S 32°54' E 151°46'0 0.0
2016-Dec-04 21:30S 32°54' E 151°46'0 0.0
2016-Dec-04 20:24S 32°54' E 151°46'0 0.0
2016-Dec-04 19:12S 32°54' E 151°46'0 0.0
2016-Dec-04 18:30S 32°54' E 151°46'0 0.0
2016-Dec-04 17:30S 32°54' E 151°46'0 0.0
2016-Dec-04 16:24S 32°54' E 151°46'0 0.0
2016-Dec-04 15:33S 32°54' E 151°46'0 0.0
2016-Dec-04 14:30S 32°54' E 151°46'0 0.0
2016-Dec-04 11:18S 32°54' E 151°46'0 0.0
2016-Dec-04 09:33S 32°54' E 151°46'0 0.1
2016-Dec-04 08:33S 32°54' E 151°46'7 6.6
2016-Dec-04 07:32S 32°59' E 151°52'5 5.4
2016-Dec-04 06:33S 33°03' E 151°56'1 1.0
2016-Dec-04 05:33S 33°03' E 151°57'1 0.8
2016-Dec-04 04:34S 33°03' E 151°58'1 0.8
2016-Dec-04 03:33S 33°04' E 151°59'1 0.6
2016-Dec-04 02:33S 33°04' E 151°59'0 0.4
2016-Dec-04 01:33S 33°04' E 151°60'0 0.5
2016-Dec-04 00:34S 33°04' E 152°00'0 0.4
2016-Dec-03 23:30S 33°04' E 152°01'0 0.4
2016-Dec-03 22:33S 33°04' E 152°01'1 0.6
2016-Dec-03 21:33S 33°05' E 152°02'1 0.5
2016-Dec-03 20:33S 33°05' E 152°02'1 0.5
2016-Dec-03 19:33S 33°05' E 152°02'1 0.6
2016-Dec-03 18:33S 33°06' E 152°03'0 0.5
2016-Dec-03 17:34S 33°07' E 152°03'1 0.4
2016-Dec-03 16:13S 33°07' E 152°03'0 0.3
2016-Dec-03 15:33S 33°07' E 152°03'0 0.3
2016-Dec-03 14:33S 33°08' E 152°02'0 0.2
2016-Dec-03 13:33S 33°08' E 152°02'0 0.2
2016-Dec-03 12:33S 33°08' E 152°03'0 0.2
2016-Dec-03 11:34S 33°08' E 152°03'0 0.3
2016-Dec-03 10:33S 33°08' E 152°03'0 0.5
2016-Dec-03 09:33S 33°08' E 152°04'4 3.5
2016-Dec-03 08:32S 33°11' E 152°01'3 0.6
2016-Dec-03 04:12S 33°10' E 151°58'1 1.6
2016-Dec-03 03:33S 33°10' E 151°59'1 1.2
2016-Dec-03 02:32S 33°10' E 152°00'8 7.9
2016-Dec-03 01:33S 33°03' E 152°06'6 6.1
2016-Dec-03 00:34S 32°59' E 152°10'1 0.8
2016-Dec-02 23:33S 32°60' E 152°10'1 0.8
2016-Dec-02 22:33S 33°00' E 152°09'1 0.9
2016-Dec-02 21:33S 33°01' E 152°09'1 1.0
2016-Dec-02 20:34S 33°01' E 152°08'1 0.9
2016-Dec-02 19:33S 33°02' E 152°07'1 0.9
2016-Dec-02 18:33S 33°03' E 152°06'1 0.9
2016-Dec-02 17:34S 33°03' E 152°05'1 0.9
2016-Dec-02 16:33S 33°03' E 152°04'6 5.9
2016-Dec-02 15:34S 33°03' E 151°57'1 1.2
2016-Dec-02 14:34S 33°04' E 151°58'1 0.9
2016-Dec-02 13:33S 33°04' E 151°59'0 0.3
2016-Dec-02 12:33S 33°05' E 151°59'1 0.7
2016-Dec-02 11:33S 33°04' E 151°60'1 0.7
2016-Dec-02 10:34S 33°03' E 151°60'1 0.8
2016-Dec-02 09:34S 33°02' E 152°00'2 1.9
2016-Dec-02 08:33S 33°01' E 152°00'7 6.8
2016-Dec-02 07:33S 32°56' E 152°06'1414.0
2016-Dec-02 06:33S 32°52' E 152°22'1514.6
2016-Dec-02 05:33S 32°45' E 152°37'1615.7
2016-Dec-02 04:33S 32°35' E 152°52'1515.3
2016-Dec-02 03:33S 32°26' E 153°06'28713.6
2016-Dec-01 06:33S 27°49' E 154°30'1514.8
2016-Dec-01 05:33S 27°34' E 154°30'1514.7
2016-Dec-01 04:33S 27°19' E 154°30'1514.5
2016-Dec-01 03:30S 27°04' E 154°30'1514.6
2016-Dec-01 02:28S 26°49' E 154°28'1514.6
2016-Dec-01 01:29S 26°35' E 154°26'1414.9
2016-Dec-01 00:33S 26°21' E 154°23'  
Track history (hours):
 
Tides and Currents Weather Stations Pressure Air Temp Water Temp Dewpoint Dewpoint Depression Visibility Wind Speed Wind Dir Waves Ship Positions

Alpha Afovos

Last reported at 2016-Dec-05 13:24 UTC. Time now 2016-Dec-05 20:34 UTC.
Position S 33°13' E 152°33'.

Length 224 m; draft 14.1 m.

Type: Cargo ship. MMSI: 239802000.

Date/timePositionNaut miles runAvg speedWind from/ knotsBaromVisibWave heightAir tempDewpointWater temp
2016-Dec-05 13:24S 33°13' E 152°33'911.1
2016-Dec-05 12:33S 33°10' E 152°22'1211.9
2016-Dec-05 11:33S 33°05' E 152°09'1212.2
2016-Dec-05 10:33S 32°59' E 151°56'9 8.5
2016-Dec-05 09:32S 32°55' E 151°47'1 1.2
2016-Dec-05 08:30S 32°54' E 151°46'0 0.0
2016-Dec-05 07:30S 32°54' E 151°46'0 0.0
2016-Dec-05 06:33S 32°54' E 151°46'0 0.0
2016-Dec-05 05:33S 32°54' E 151°46'0 0.0
2016-Dec-05 04:30S 32°54' E 151°46'0 0.0
2016-Dec-05 03:30S 32°54' E 151°46'0 0.0
2016-Dec-04 21:30S 32°54' E 151°46'0 0.0
2016-Dec-04 20:24S 32°54' E 151°46'0 0.0
2016-Dec-04 19:12S 32°54' E 151°46'0 0.0
2016-Dec-04 18:30S 32°54' E 151°46'0 0.0
2016-Dec-04 17:30S 32°54' E 151°46'0 0.0
2016-Dec-04 16:24S 32°54' E 151°46'0 0.0
2016-Dec-04 15:33S 32°54' E 151°46'0 0.0
2016-Dec-04 14:30S 32°54' E 151°46'0 0.0
2016-Dec-04 11:18S 32°54' E 151°46'0 0.0
2016-Dec-04 09:33S 32°54' E 151°46'0 0.1
2016-Dec-04 08:33S 32°54' E 151°46'7 6.6
2016-Dec-04 07:32S 32°59' E 151°52'5 5.4
2016-Dec-04 06:33S 33°03' E 151°56'1 1.0
2016-Dec-04 05:33S 33°03' E 151°57'1 0.8
2016-Dec-04 04:34S 33°03' E 151°58'1 0.8
2016-Dec-04 03:33S 33°04' E 151°59'1 0.6
2016-Dec-04 02:33S 33°04' E 151°59'0 0.4
2016-Dec-04 01:33S 33°04' E 151°60'0 0.5
2016-Dec-04 00:34S 33°04' E 152°00'0 0.4
2016-Dec-03 23:30S 33°04' E 152°01'0 0.4
2016-Dec-03 22:33S 33°04' E 152°01'1 0.6
2016-Dec-03 21:33S 33°05' E 152°02'1 0.5
2016-Dec-03 20:33S 33°05' E 152°02'1 0.5
2016-Dec-03 19:33S 33°05' E 152°02'1 0.6
2016-Dec-03 18:33S 33°06' E 152°03'0 0.5
2016-Dec-03 17:34S 33°07' E 152°03'1 0.4
2016-Dec-03 16:13S 33°07' E 152°03'0 0.3
2016-Dec-03 15:33S 33°07' E 152°03'0 0.3
2016-Dec-03 14:33S 33°08' E 152°02'0 0.2
2016-Dec-03 13:33S 33°08' E 152°02'0 0.2
2016-Dec-03 12:33S 33°08' E 152°03'0 0.2
2016-Dec-03 11:34S 33°08' E 152°03'0 0.3
2016-Dec-03 10:33S 33°08' E 152°03'0 0.5
2016-Dec-03 09:33S 33°08' E 152°04'4 3.5
2016-Dec-03 08:32S 33°11' E 152°01'3 0.6
2016-Dec-03 04:12S 33°10' E 151°58'1 1.6
2016-Dec-03 03:33S 33°10' E 151°59'1 1.2
2016-Dec-03 02:32S 33°10' E 152°00'8 7.9
2016-Dec-03 01:33S 33°03' E 152°06'6 6.1
2016-Dec-03 00:34S 32°59' E 152°10'1 0.8
2016-Dec-02 23:33S 32°60' E 152°10'1 0.8
2016-Dec-02 22:33S 33°00' E 152°09'1 0.9
2016-Dec-02 21:33S 33°01' E 152°09'1 1.0
2016-Dec-02 20:34S 33°01' E 152°08'1 0.9
2016-Dec-02 19:33S 33°02' E 152°07'1 0.9
2016-Dec-02 18:33S 33°03' E 152°06'1 0.9
2016-Dec-02 17:34S 33°03' E 152°05'1 0.9
2016-Dec-02 16:33S 33°03' E 152°04'6 5.9
2016-Dec-02 15:34S 33°03' E 151°57'1 1.2
2016-Dec-02 14:34S 33°04' E 151°58'1 0.9
2016-Dec-02 13:33S 33°04' E 151°59'0 0.3
2016-Dec-02 12:33S 33°05' E 151°59'1 0.7
2016-Dec-02 11:33S 33°04' E 151°60'1 0.7
2016-Dec-02 10:34S 33°03' E 151°60'1 0.8
2016-Dec-02 09:34S 33°02' E 152°00'2 1.9
2016-Dec-02 08:33S 33°01' E 152°00'7 6.8
2016-Dec-02 07:33S 32°56' E 152°06'1414.0
2016-Dec-02 06:33S 32°52' E 152°22'1514.6
2016-Dec-02 05:33S 32°45' E 152°37'1615.7
2016-Dec-02 04:33S 32°35' E 152°52'1515.3
2016-Dec-02 03:33S 32°26' E 153°06'28713.6
2016-Dec-01 06:33S 27°49' E 154°30'1514.8
2016-Dec-01 05:33S 27°34' E 154°30'1514.7
2016-Dec-01 04:33S 27°19' E 154°30'1514.5
2016-Dec-01 03:30S 27°04' E 154°30'1514.6
2016-Dec-01 02:28S 26°49' E 154°28'1514.6
2016-Dec-01 01:29S 26°35' E 154°26'1414.9
2016-Dec-01 00:33S 26°21' E 154°23'  

Dump ship's entire track history